Cleveland, Arkansas
Current Conditions -  °F | °C
As of 4:53 PM on Tuesday 21 Oct 2014 (Local Time) from KRUE Reporting Station
Clear Clear  
Wind Chill: 79°   Ceiling: Unl
Heat Index: 79°   Visibility: 10mi
Dew Point: 51°   Wind: 3mph
Humidity: 38%   Direction: NA
Pressure: 30.04"   Gusts: NA
Location:  35.42°N, 92.71°W
Report Text: KRUE 212153Z AUTO VRB03KT 10SM CLR 26/11 A3004 RMK AO2 SLP167 T02610106
Loading
Personal Weather Stations






























Interactive Weather Map
Tropical Storm Tracking
New forecast layout! Learn more

10-Day Weather Forecast

Advertisements
Track Severe Weather on mobile